Terminal Aerodrome Forecast
Issued by NWS Brownsville, TX

Home | Current Version | Previous Version | Text Only | Print | Product List | Glossary On
Versions: 1 2 3 4 5 6 7 8 9 10 11 12 13 14 15 16 17
000
FTUS44 KBRO 051404 AAA
TAFMFE
TAF AMD
KMFE 051404Z 0514/0612 12014KT P6SM SCT013 SCT020 OVC035
      TEMPO 0514/0516 BKN013 BKN020
     FM060300 13013G18KT P6SM BKN025
     FM060500 13013KT P6SM BKN015=

USA.gov is the U.S. government's official web portal to all federal, state and local government web resources and services.